Time;durP1;ratioP1;P1;durP2;ratioP2;P2;SDS_P1;SDS_P2;PMS_P1;PMS_P2;Temp;Humidity;BMP_temperature;BMP_pressure;BME280_temperature;BME280_humidity;BME280_pressure;Samples;Min_cycle;Max_cycle;Signal;HPM_P1;HPM_P2
2022/03/05 00:00:45;;;;;;;32.05;15.85;;;-2.30;99.90;;;;;;6194004;23;20044;-84
2022/03/05 00:03:35;;;;;;;27.17;13.88;;;-2.20;99.90;;;;;;6212763;23;20447;-83
2022/03/05 00:06:22;;;;;;;32.70;15.40;;;-2.30;99.90;;;;;;6213766;23;20032;-84
2022/03/05 00:09:10;;;;;;;32.60;16.05;;;-2.40;99.90;;;;;;6193856;23;20090;-86
2022/03/05 00:11:57;;;;;;;33.78;15.85;;;-2.40;99.90;;;;;;6198554;23;20417;-83
2022/03/05 00:14:50;;;;;;;34.00;15.60;;;-2.40;99.90;;;;;;6210509;22;20008;-84
2022/03/05 00:17:38;;;;;;;29.92;14.85;;;-2.50;99.90;;;;;;6205867;23;20032;-86
2022/03/05 00:20:25;;;;;;;28.88;14.23;;;-2.50;99.90;;;;;;6195177;23;20032;-85
2022/03/05 00:23:16;;;;;;;24.83;13.70;;;-2.40;99.90;;;;;;6196287;23;20036;-84
2022/03/05 00:26:07;;;;;;;25.95;12.70;;;-2.30;99.90;;;;;;6215467;23;20413;-84
2022/03/05 00:28:56;;;;;;;30.38;13.20;;;-2.20;99.90;;;;;;6195139;23;20035;-85
2022/03/05 00:31:43;;;;;;;25.10;13.05;;;-2.10;99.90;;;;;;6214928;23;20039;-84
2022/03/05 00:34:44;;;;;;;25.85;12.73;;;-2.10;99.90;;;;;;6193496;23;20032;-84
2022/03/05 00:37:32;;;;;;;26.92;13.50;;;-2.10;99.90;;;;;;6193600;23;20020;-84
2022/03/05 00:40:26;;;;;;;25.58;12.98;;;-2.10;99.90;;;;;;6196654;23;20028;-84
2022/03/05 00:43:14;;;;;;;24.17;12.57;;;-2.10;99.90;;;;;;6195419;23;20025;-84
2022/03/05 00:46:02;;;;;;;26.83;12.27;;;-2.10;99.90;;;;;;6215153;23;20102;-84
2022/03/05 00:48:52;;;;;;;26.38;13.02;;;-2.10;99.90;;;;;;6195397;23;20353;-84
2022/03/05 00:51:39;;;;;;;26.75;14.05;;;-2.20;99.90;;;;;;6195720;23;20044;-83
2022/03/05 00:54:26;;;;;;;35.33;13.98;;;-2.20;99.90;;;;;;6215154;23;20025;-85
2022/03/05 00:57:14;;;;;;;26.00;12.85;;;-2.30;99.90;;;;;;6216995;23;20056;-85
2022/03/05 01:00:02;;;;;;;28.90;12.68;;;-2.40;99.90;;;;;;6193707;23;20108;-83
2022/03/05 01:02:50;;;;;;;26.52;13.55;;;-2.40;99.90;;;;;;6193710;23;20024;-84
2022/03/05 01:05:37;;;;;;;28.10;12.60;;;-2.40;99.90;;;;;;6192865;23;20089;-83
2022/03/05 01:08:24;;;;;;;27.08;13.15;;;-2.50;99.90;;;;;;6214469;23;20020;-83
2022/03/05 01:11:15;;;;;;;34.25;14.18;;;-2.50;99.90;;;;;;6193140;23;20029;-83
2022/03/05 01:14:04;;;;;;;28.05;13.93;;;-2.70;99.90;;;;;;6192510;23;20032;-84
2022/03/05 01:16:51;;;;;;;27.55;13.65;;;-2.80;99.90;;;;;;6192153;23;20020;-84
2022/03/05 01:19:39;;;;;;;25.92;13.60;;;-2.90;99.90;;;;;;6195129;23;20036;-84
2022/03/05 01:22:26;;;;;;;30.83;14.07;;;-3.00;99.90;;;;;;6194536;23;20025;-83
2022/03/05 01:25:13;;;;;;;25.13;13.68;;;-3.10;99.90;;;;;;6214392;23;20039;-83
2022/03/05 01:28:05;;;;;;;20.50;13.05;;;-3.10;99.90;;;;;;6214146;23;20036;-83
2022/03/05 01:30:54;;;;;;;27.25;13.70;;;-3.10;99.90;;;;;;6214076;23;20044;-84
2022/03/05 01:33:42;;;;;;;30.73;12.55;;;-3.10;99.90;;;;;;6219195;23;20083;-83
2022/03/05 01:36:29;;;;;;;26.85;13.50;;;-3.00;99.90;;;;;;6231273;23;20028;-84
2022/03/05 01:39:18;;;;;;;24.55;12.95;;;-3.00;99.90;;;;;;6225068;23;20020;-83
2022/03/05 01:42:06;;;;;;;28.02;12.50;;;-2.90;99.90;;;;;;6214715;23;20427;-83
2022/03/05 01:44:53;;;;;;;24.60;11.23;;;-2.90;99.90;;;;;;6194322;23;20028;-82
2022/03/05 01:47:41;;;;;;;22.17;11.10;;;-2.80;99.90;;;;;;6193639;23;20036;-84
2022/03/05 01:50:29;;;;;;;21.58;10.40;;;-2.60;99.90;;;;;;6210525;23;20376;-83
2022/03/05 01:53:16;;;;;;;21.92;11.25;;;-2.50;99.90;;;;;;6211173;23;20127;-85
2022/03/05 01:56:06;;;;;;;23.73;11.05;;;-2.40;99.90;;;;;;6216929;23;20355;-85
2022/03/05 01:58:53;;;;;;;23.17;10.95;;;-2.50;99.90;;;;;;6195284;23;20041;-84
2022/03/05 02:01:41;;;;;;;21.40;11.25;;;-2.50;99.90;;;;;;6196428;23;20154;-85
2022/03/05 02:04:28;;;;;;;25.58;12.18;;;-2.50;99.90;;;;;;6215592;23;20036;-85
2022/03/05 02:07:17;;;;;;;25.50;11.85;;;-2.60;99.90;;;;;;6214406;23;20025;-84
2022/03/05 02:10:06;;;;;;;22.95;11.38;;;-2.60;99.90;;;;;;6215064;23;20028;-84
2022/03/05 02:12:55;;;;;;;22.88;11.25;;;-2.70;99.90;;;;;;6194909;23;20332;-84
2022/03/05 02:15:42;;;;;;;21.88;11.65;;;-2.80;99.90;;;;;;6193582;23;20034;-84
2022/03/05 02:18:30;;;;;;;23.98;11.65;;;-2.90;99.90;;;;;;6192184;23;20082;-84
2022/03/05 02:21:22;;;;;;;25.08;11.95;;;-3.00;99.90;;;;;;6213513;23;20024;-84
2022/03/05 02:24:11;;;;;;;25.25;12.32;;;-3.20;99.90;;;;;;6194891;23;20029;-83
2022/03/05 02:27:00;;;;;;;22.52;11.70;;;-3.30;99.90;;;;;;6215617;23;20161;-84
2022/03/05 02:29:48;;;;;;;24.42;11.98;;;-3.30;99.90;;;;;;6216163;23;20087;-83
2022/03/05 02:32:35;;;;;;;23.52;12.25;;;-3.30;99.90;;;;;;6215239;23;20024;-83
2022/03/05 02:35:22;;;;;;;28.85;12.35;;;-3.40;99.90;;;;;;6214026;23;20032;-84
2022/03/05 02:38:15;;;;;;;28.98;12.73;;;-3.40;99.90;;;;;;6191378;23;20035;-83
2022/03/05 02:41:02;;;;;;;23.92;12.23;;;-3.50;99.90;;;;;;6213475;23;20024;-85
2022/03/05 02:43:49;;;;;;;22.88;12.43;;;-3.70;99.90;;;;;;6192346;23;20094;-85
2022/03/05 02:46:37;;;;;;;25.45;13.65;;;-3.70;99.90;;;;;;6220472;23;20039;-86
2022/03/05 02:49:27;;;;;;;24.15;12.65;;;-3.80;99.90;;;;;;6230853;23;20039;-85
2022/03/05 02:52:14;;;;;;;25.02;13.35;;;-3.80;99.90;;;;;;6224563;23;20352;-84
2022/03/05 02:55:01;;;;;;;26.52;13.07;;;-3.80;99.90;;;;;;6194441;23;20028;-85
2022/03/05 02:57:51;;;;;;;29.88;14.10;;;-3.70;99.90;;;;;;6213502;23;20031;-84
2022/03/05 03:00:38;;;;;;;24.42;13.70;;;-3.60;99.90;;;;;;6213130;23;20086;-84
2022/03/05 03:03:29;;;;;;;27.33;13.82;;;-3.60;99.90;;;;;;6213471;23;20040;-84
2022/03/05 03:06:16;;;;;;;26.27;13.02;;;-3.60;99.90;;;;;;6215477;23;20092;-86
2022/03/05 03:09:05;;;;;;;24.85;13.30;;;-3.70;99.90;;;;;;6215674;23;20063;-84
2022/03/05 03:11:53;;;;;;;30.52;12.95;;;-3.80;99.90;;;;;;6193213;23;20036;-84
2022/03/05 03:14:40;;;;;;;25.73;12.80;;;-3.80;99.90;;;;;;6198417;23;20029;-86
2022/03/05 03:17:28;;;;;;;26.52;13.52;;;-3.90;99.90;;;;;;6231906;23;20044;-84
2022/03/05 03:20:24;;;;;;;26.63;13.07;;;-3.90;99.90;;;;;;6219378;23;20073;-84
2022/03/05 03:23:14;;;;;;;26.98;12.40;;;-3.90;99.90;;;;;;6213323;23;20020;-84
2022/03/05 03:26:02;;;;;;;22.17;12.55;;;-3.90;99.90;;;;;;6214955;23;20024;-84
2022/03/05 03:28:49;;;;;;;29.52;12.57;;;-3.90;99.90;;;;;;6213261;23;20039;-83
2022/03/05 03:31:36;;;;;;;30.30;13.80;;;-3.90;99.90;;;;;;6213602;23;20028;-84
2022/03/05 03:34:24;;;;;;;25.10;12.70;;;-3.90;99.90;;;;;;6215513;23;20052;-84
2022/03/05 03:37:13;;;;;;;22.50;12.48;;;-4.00;99.90;;;;;;6212834;23;20024;-84
2022/03/05 03:40:02;;;;;;;27.98;13.05;;;-4.00;99.90;;;;;;6213049;23;20087;-84
2022/03/05 03:42:53;;;;;;;28.02;13.35;;;-3.90;99.90;;;;;;6214014;23;20309;-84
2022/03/05 03:45:42;;;;;;;27.35;12.93;;;-3.90;99.90;;;;;;6212084;23;20021;-84
2022/03/05 03:48:32;;;;;;;23.25;12.77;;;-4.00;99.90;;;;;;6193680;23;20028;-83
2022/03/05 03:51:19;;;;;;;27.40;12.98;;;-4.10;99.90;;;;;;6191525;23;20032;-84
2022/03/05 03:54:06;;;;;;;29.42;14.27;;;-4.10;99.90;;;;;;6193837;23;20035;-83
2022/03/05 03:56:53;;;;;;;28.33;12.95;;;-4.00;99.90;;;;;;6194687;23;20735;-84
2022/03/05 03:59:46;;;;;;;29.52;14.02;;;-4.10;99.90;;;;;;6216080;23;20021;-84
2022/03/05 04:02:33;;;;;;;28.27;13.48;;;-4.20;99.90;;;;;;6214815;23;20028;-84
2022/03/05 04:05:20;;;;;;;26.55;13.13;;;-4.20;99.90;;;;;;6216872;23;20135;-83
2022/03/05 04:11:18;;;;;;;27.27;13.32;;;-4.30;99.90;;;;;;6214739;23;20029;-83
2022/03/05 04:14:05;;;;;;;24.57;12.83;;;-4.40;99.90;;;;;;6215659;23;20351;-83
2022/03/05 04:16:55;;;;;;;24.60;12.73;;;-4.40;99.90;;;;;;6215582;23;20695;-84
2022/03/05 04:19:43;;;;;;;28.50;13.20;;;-4.50;99.90;;;;;;6222893;23;20024;-84
2022/03/05 04:22:31;;;;;;;25.48;13.63;;;-4.50;99.90;;;;;;6199665;23;20083;-84
2022/03/05 04:25:19;;;;;;;23.73;12.63;;;-4.40;99.90;;;;;;6215369;23;20104;-84
2022/03/05 04:28:06;;;;;;;30.50;14.55;;;-4.40;99.90;;;;;;6196118;23;20086;-84
2022/03/05 04:30:53;;;;;;;29.02;13.50;;;-4.40;99.90;;;;;;6193052;23;20029;-85
2022/03/05 04:33:41;;;;;;;28.48;13.63;;;-4.40;99.90;;;;;;6217408;23;20032;-84
2022/03/05 04:36:29;;;;;;;27.33;13.75;;;-4.30;99.90;;;;;;6194636;23;20054;-84
2022/03/05 04:39:16;;;;;;;24.00;13.27;;;-4.30;99.90;;;;;;6214949;23;20021;-84
2022/03/05 04:42:04;;;;;;;31.65;15.05;;;-4.30;99.90;;;;;;6216760;23;20140;-83
2022/03/05 04:44:51;;;;;;;33.95;14.27;;;-4.30;99.90;;;;;;6214986;23;20107;-83
2022/03/05 04:47:39;;;;;;;27.98;13.93;;;-4.20;99.90;;;;;;6214913;23;20152;-85
2022/03/05 04:50:29;;;;;;;29.38;14.15;;;-4.10;99.90;;;;;;6217187;23;20082;-83
2022/03/05 04:53:21;;;;;;;28.08;14.68;;;-4.00;99.90;;;;;;6195248;23;20040;-83
2022/03/05 04:56:08;;;;;;;;;;;-4.00;99.90;;;;;;6217099;23;20020;-83
2022/03/05 04:59:01;;;;;;;30.05;13.63;;;-4.00;99.90;;;;;;6214951;23;19916;-83
2022/03/05 05:01:50;;;;;;;28.30;13.82;;;-3.90;99.90;;;;;;6215562;23;20032;-83
2022/03/05 05:04:37;;;;;;;30.55;14.50;;;-4.00;99.90;;;;;;6221602;23;20100;-84
2022/03/05 05:07:25;;;;;;;28.58;13.57;;;-4.00;99.90;;;;;;6230818;23;20084;-82
2022/03/05 05:10:12;;;;;;;28.42;13.43;;;-4.10;99.90;;;;;;6210034;23;20036;-84
2022/03/05 05:13:00;;;;;;;32.22;14.93;;;-4.20;99.90;;;;;;6220689;23;20106;-83
2022/03/05 05:15:49;;;;;;;28.52;14.15;;;-4.30;99.90;;;;;;6217100;23;20104;-84
2022/03/05 05:18:37;;;;;;;32.88;15.45;;;-4.30;99.90;;;;;;6194329;23;20397;-83
2022/03/05 05:21:24;;;;;;;35.85;16.05;;;-4.40;99.90;;;;;;6217372;23;20020;-85
2022/03/05 05:24:11;;;;;;;30.15;15.20;;;-4.40;99.90;;;;;;6228081;22;20097;-84
2022/03/05 05:27:01;;;;;;;34.30;15.68;;;-4.50;99.90;;;;;;6209143;23;20071;-84
2022/03/05 05:29:48;;;;;;;30.77;14.98;;;-4.50;99.90;;;;;;6193728;23;20031;-84
2022/03/05 05:32:38;;;;;;;38.80;16.42;;;-4.50;99.90;;;;;;6214629;23;20024;-82
2022/03/05 05:35:25;;;;;;;27.92;14.57;;;-4.60;99.90;;;;;;6196345;23;20035;-83
2022/03/05 05:38:15;;;;;;;37.60;17.02;;;-4.50;99.90;;;;;;6216633;23;20020;-84
2022/03/05 05:41:03;;;;;;;35.75;15.98;;;-4.40;99.90;;;;;;6217102;23;20020;-83
2022/03/05 05:43:52;;;;;;;33.28;14.85;;;-4.20;99.90;;;;;;6194926;23;20044;-83
2022/03/05 05:46:41;;;;;;;30.80;15.10;;;-4.20;99.90;;;;;;6215849;23;20029;-84
2022/03/05 05:49:29;;;;;;;30.58;15.30;;;-4.20;99.90;;;;;;6194033;23;20281;-84
2022/03/05 05:52:18;;;;;;;37.30;15.05;;;-4.10;99.90;;;;;;6217106;23;20033;-84
2022/03/05 05:55:05;;;;;;;31.48;14.23;;;-4.00;99.90;;;;;;6215540;23;20028;-83
2022/03/05 05:57:53;;;;;;;26.50;13.57;;;-4.00;99.90;;;;;;6193556;23;20079;-83
2022/03/05 06:00:40;;;;;;;27.25;14.85;;;-4.00;99.90;;;;;;6217317;23;20086;-83
2022/03/05 06:03:30;;;;;;;32.97;15.20;;;-3.90;99.90;;;;;;6217465;23;20304;-84
2022/03/05 06:06:20;;;;;;;33.38;15.38;;;-3.80;99.90;;;;;;6216082;23;20423;-85
2022/03/05 06:09:07;;;;;;;32.00;14.93;;;-3.80;99.90;;;;;;6193756;23;20043;-83
2022/03/05 06:11:55;;;;;;;36.95;16.58;;;-3.80;99.90;;;;;;6216109;23;20040;-81
2022/03/05 06:14:45;;;;;;;36.85;16.95;;;-3.80;99.90;;;;;;6215121;23;20035;-83
2022/03/05 06:17:32;;;;;;;32.97;16.10;;;-3.80;99.90;;;;;;6215687;23;20044;-84
2022/03/05 06:20:19;;;;;;;33.45;15.98;;;-3.80;99.90;;;;;;6217941;23;20028;-84
2022/03/05 06:23:06;;;;;;;37.63;16.52;;;-3.70;99.90;;;;;;6193264;23;20136;-84
2022/03/05 06:25:54;;;;;;;32.60;15.77;;;-3.60;99.90;;;;;;6198183;23;20120;-85
2022/03/05 06:28:41;;;;;;;38.75;17.30;;;-3.60;99.90;;;;;;6225599;23;20024;-84
2022/03/05 06:31:29;;;;;;;30.60;15.95;;;-3.70;99.90;;;;;;6227481;23;20029;-84
2022/03/05 06:34:16;;;;;;;34.30;15.40;;;-3.60;99.90;;;;;;6225059;23;20430;-83
2022/03/05 06:37:03;;;;;;;37.50;17.23;;;-3.60;99.90;;;;;;6225056;23;20082;-86
2022/03/05 06:39:50;;;;;;;35.35;15.85;;;-3.60;99.90;;;;;;6226417;23;20435;-83
2022/03/05 06:42:39;;;;;;;34.20;15.50;;;-3.60;99.90;;;;;;6221255;23;20028;-84
2022/03/05 06:45:28;;;;;;;35.17;17.05;;;-3.50;99.90;;;;;;6223441;23;20123;-83
2022/03/05 06:48:19;;;;;;;38.65;16.85;;;-3.40;99.90;;;;;;6200690;23;20028;-84
2022/03/05 06:51:06;;;;;;;37.92;18.00;;;-3.20;99.90;;;;;;6215260;23;20116;-83
2022/03/05 06:53:53;;;;;;;38.80;18.17;;;-3.00;99.90;;;;;;6216543;23;20035;-83
2022/03/05 06:56:43;;;;;;;37.80;17.75;;;-2.50;99.90;;;;;;6216752;23;20032;-86
2022/03/05 06:59:30;;;;;;;38.25;18.83;;;-2.00;99.90;;;;;;6215449;23;20091;-84
2022/03/05 07:02:21;;;;;;;37.50;17.25;;;-1.40;99.90;;;;;;6214299;23;20079;-84
2022/03/05 07:05:09;;;;;;;32.15;16.95;;;-1.00;99.90;;;;;;6214684;23;20025;-84
2022/03/05 07:07:57;;;;;;;37.30;17.25;;;-0.60;99.90;;;;;;6214054;23;20092;-84
2022/03/05 07:10:44;;;;;;;40.90;18.50;;;-0.30;99.90;;;;;;6195774;23;20056;-84
2022/03/05 07:13:34;;;;;;;31.92;16.98;;;0.00;99.90;;;;;;6194942;23;20036;-83
2022/03/05 07:16:26;;;;;;;28.52;15.07;;;0.20;99.90;;;;;;6195790;23;20032;-84
2022/03/05 07:19:13;;;;;;;29.30;16.95;;;0.20;99.90;;;;;;6215321;23;20056;-84
2022/03/05 07:22:01;;;;;;;32.47;17.25;;;0.20;99.90;;;;;;6214355;23;20035;-83
2022/03/05 07:24:51;;;;;;;32.58;18.02;;;0.10;99.90;;;;;;6214708;23;20032;-86
2022/03/05 07:27:39;;;;;;;35.97;18.23;;;0.20;99.90;;;;;;6217139;23;20032;-84
2022/03/05 07:30:26;;;;;;;35.67;17.92;;;0.30;99.90;;;;;;6214736;23;20028;-84
2022/03/05 07:33:14;;;;;;;35.17;18.02;;;0.50;99.90;;;;;;6213431;23;20031;-85
2022/03/05 07:36:05;;;;;;;37.80;17.70;;;0.80;99.90;;;;;;6192648;23;20028;-86
2022/03/05 07:38:52;;;;;;;39.80;17.27;;;1.00;99.90;;;;;;6195378;23;20024;-85
2022/03/05 07:41:40;;;;;;;33.65;17.40;;;1.30;99.90;;;;;;6213920;23;20024;-86
2022/03/05 07:44:30;;;;;;;32.65;17.25;;;1.60;99.90;;;;;;6194721;23;20025;-86
2022/03/05 07:47:17;;;;;;;35.20;17.65;;;2.00;98.50;;;;;;6216341;23;20084;-85
2022/03/05 07:50:05;;;;;;;34.00;18.48;;;2.40;96.90;;;;;;6222392;23;20029;-85
2022/03/05 07:52:53;;;;;;;30.83;16.55;;;2.50;95.70;;;;;;6220714;23;20025;-86
2022/03/05 07:55:40;;;;;;;28.95;17.23;;;3.10;94.40;;;;;;6196559;23;20028;-87
2022/03/05 07:58:27;;;;;;;28.42;16.75;;;3.30;92.20;;;;;;6202947;23;20016;-86
2022/03/05 08:01:15;;;;;;;32.08;18.58;;;3.30;90.70;;;;;;6231261;23;20074;-86
2022/03/05 08:04:04;;;;;;;32.80;18.27;;;3.10;90.90;;;;;;6225587;23;20036;-86
2022/03/05 08:06:51;;;;;;;32.95;17.95;;;3.00;91.10;;;;;;6214179;23;20123;-87
2022/03/05 08:09:40;;;;;;;33.13;17.88;;;3.30;91.40;;;;;;6193935;23;20052;-87
2022/03/05 08:12:28;;;;;;;31.38;17.70;;;3.50;90.20;;;;;;6212964;23;20036;-88
2022/03/05 08:15:19;;;;;;;33.72;17.67;;;3.80;89.00;;;;;;6213587;23;20036;-87
2022/03/05 08:18:06;;;;;;;33.28;17.27;;;3.90;87.60;;;;;;6213369;23;20031;-86
2022/03/05 08:20:56;;;;;;;33.85;18.23;;;4.30;86.90;;;;;;6214190;23;20032;-86
2022/03/05 08:23:43;;;;;;;29.30;17.30;;;4.60;83.20;;;;;;6194779;23;20021;-85
2022/03/05 08:26:30;;;;;;;31.52;17.13;;;4.90;80.70;;;;;;6195629;23;20024;-87
2022/03/05 08:29:17;;;;;;;32.45;17.27;;;5.30;79.20;;;;;;6209301;22;20039;-84
2022/03/05 08:32:05;;;;;;;31.05;17.98;;;6.00;75.70;;;;;;6239145;22;20025;-85
2022/03/05 08:34:52;;;;;;;32.53;17.92;;;6.50;74.00;;;;;;6229224;22;20693;-88
2022/03/05 08:37:43;;;;;;;29.70;16.75;;;6.50;70.30;;;;;;6199787;23;20047;-86
2022/03/05 08:40:30;;;;;;;34.92;18.25;;;5.80;70.80;;;;;;6216524;23;20269;-87
2022/03/05 08:43:23;;;;;;;43.55;24.52;;;5.50;74.70;;;;;;6194274;23;20028;-86
2022/03/05 08:46:13;;;;;;;30.92;18.00;;;5.40;73.40;;;;;;6198480;23;20036;-85
2022/03/05 08:49:00;;;;;;;30.20;17.77;;;5.20;73.50;;;;;;6196223;23;20051;-87
2022/03/05 08:51:48;;;;;;;33.80;18.48;;;5.10;74.00;;;;;;6216845;23;20056;-87
2022/03/05 08:54:35;;;;;;;33.65;18.02;;;5.00;74.50;;;;;;6197085;23;20035;-88
2022/03/05 08:57:23;;;;;;;29.50;16.88;;;5.00;73.80;;;;;;6197440;23;20028;-87
2022/03/05 09:00:15;;;;;;;32.03;17.70;;;4.90;74.70;;;;;;6225223;23;20025;-85
2022/03/05 09:03:02;;;;;;;31.88;18.02;;;5.00;74.80;;;;;;6199955;23;20020;-88
2022/03/05 09:05:54;;;;;;;29.83;17.65;;;5.20;73.10;;;;;;6198103;23;20025;-88
2022/03/05 09:08:41;;;;;;;23.70;13.25;;;4.90;73.10;;;;;;6195809;23;20028;-87
2022/03/05 09:11:29;;;;;;;30.70;17.83;;;5.00;74.60;;;;;;6197525;23;20107;-86
2022/03/05 09:14:16;;;;;;;34.30;17.92;;;5.30;73.80;;;;;;6216708;23;20032;-87
2022/03/05 09:17:04;;;;;;;29.67;17.08;;;5.60;71.50;;;;;;6195776;23;20036;-89
2022/03/05 09:19:53;;;;;;;31.50;17.00;;;5.70;70.50;;;;;;6194673;23;20035;-86
2022/03/05 09:22:46;;;;;;;28.70;16.00;;;5.90;70.90;;;;;;6215894;23;20031;-86
2022/03/05 09:25:33;;;;;;;28.30;16.50;;;6.10;68.30;;;;;;6193995;23;20082;-86
2022/03/05 09:28:21;;;;;;;28.67;16.67;;;6.60;67.50;;;;;;6219824;23;20029;-87
2022/03/05 09:31:11;;;;;;;28.45;15.07;;;7.40;63.50;;;;;;6194287;23;20024;-89
2022/03/05 09:33:59;;;;;;;26.83;14.45;;;8.20;60.90;;;;;;6218146;23;20031;-88
2022/03/05 09:36:47;;;;;;;23.67;14.57;;;8.10;58.60;;;;;;6197378;23;20044;-90
2022/03/05 09:39:36;;;;;;;28.15;15.43;;;8.60;56.80;;;;;;6193621;23;20364;-87
2022/03/05 09:42:27;;;;;;;21.92;14.57;;;8.60;56.80;;;;;;6216451;23;20025;-89
2022/03/05 09:45:21;;;;;;;26.35;15.20;;;9.40;53.30;;;;;;6215084;23;20029;-88
2022/03/05 09:48:10;;;;;;;25.73;14.45;;;9.80;53.20;;;;;;6194168;23;20021;-89
2022/03/05 09:51:01;;;;;;;28.10;14.52;;;10.40;53.20;;;;;;6215487;23;20038;-87
2022/03/05 09:53:53;;;;;;;24.00;14.43;;;10.70;48.80;;;;;;6195145;23;20028;-87
2022/03/05 09:56:42;;;;;;;23.63;14.45;;;10.60;50.60;;;;;;6215030;23;20025;-87
2022/03/05 09:59:29;;;;;;;22.23;13.88;;;10.90;49.70;;;;;;6216183;23;20025;-90
2022/03/05 10:02:18;;;;;;;20.23;13.30;;;10.70;49.70;;;;;;6215283;23;20481;-88
2022/03/05 10:05:15;;;;;;;32.50;14.75;;;10.70;48.90;;;;;;6193643;23;20651;-88
2022/03/05 10:08:07;;;;;;;22.73;14.13;;;10.10;49.20;;;;;;6215241;23;20073;-88
2022/03/05 10:11:01;;;;;;;20.95;13.65;;;10.40;52.10;;;;;;6195262;23;20028;-88
2022/03/05 10:13:53;;;;;;;24.55;14.27;;;11.10;48.80;;;;;;6193696;23;20029;-90
2022/03/05 10:16:41;;;;;;;23.33;13.55;;;11.40;48.50;;;;;;6216191;23;20098;-88
2022/03/05 10:19:29;;;;;;;23.70;14.25;;;10.80;48.30;;;;;;6197853;23;20056;-89
2022/03/05 10:22:16;;;;;;;21.25;14.35;;;11.20;48.30;;;;;;6201511;23;20024;-87
2022/03/05 10:25:07;;;;;;;22.02;13.75;;;11.60;47.80;;;;;;6219507;23;20119;-89
2022/03/05 10:28:09;;;;;;;20.27;12.83;;;11.30;47.50;;;;;;6194456;23;20024;-89
2022/03/05 10:31:12;;;;;;;22.80;13.82;;;11.50;47.90;;;;;;6215162;23;20243;-88
2022/03/05 10:34:00;;;;;;;22.58;14.98;;;11.10;46.50;;;;;;6194723;23;20025;-88
2022/03/05 10:37:03;;;;;;;21.45;13.57;;;10.60;48.70;;;;;;6216340;23;20040;-89
2022/03/05 10:39:58;;;;;;;21.67;13.48;;;11.00;48.80;;;;;;6203122;23;20028;-88
2022/03/05 10:42:47;;;;;;;25.23;13.15;;;11.10;47.90;;;;;;6211781;23;20021;-89
2022/03/05 10:45:54;;;;;;;18.40;11.82;;;10.30;47.90;;;;;;6225208;23;20032;-88
2022/03/05 10:48:44;;;;;;;20.25;12.57;;;10.10;48.60;;;;;;6213813;23;20032;-89
2022/03/05 10:51:31;;;;;;;18.88;11.52;;;10.20;48.00;;;;;;6215030;23;20032;-86
2022/03/05 10:54:39;;;;;;;20.80;13.05;;;10.90;45.90;;;;;;6216411;23;20024;-89
2022/03/05 10:57:28;;;;;;;20.65;12.90;;;10.90;47.70;;;;;;6214017;23;20027;-89
2022/03/05 11:00:16;;;;;;;19.70;12.73;;;11.30;46.40;;;;;;6217572;23;20025;-88
2022/03/05 11:03:07;;;;;;;20.77;12.18;;;12.00;44.80;;;;;;6193891;23;20047;-88
2022/03/05 11:05:55;;;;;;;19.38;11.43;;;12.30;43.30;;;;;;6213168;23;20025;-89
2022/03/05 11:08:45;;;;;;;19.42;11.25;;;12.90;40.90;;;;;;6192927;23;20024;-89
2022/03/05 11:11:36;;;;;;;18.17;11.13;;;13.20;41.70;;;;;;6215243;23;20021;-88
2022/03/05 11:14:26;;;;;;;17.20;10.90;;;12.60;41.70;;;;;;6215070;23;20086;-89
2022/03/05 11:17:24;;;;;;;19.77;12.03;;;12.00;43.70;;;;;;6214137;23;20024;-89
2022/03/05 11:20:13;;;;;;;16.38;11.02;;;12.60;43.80;;;;;;6216436;23;20024;-88
2022/03/05 11:23:02;;;;;;;15.05;9.48;;;13.50;41.10;;;;;;6195019;23;20035;-89
2022/03/05 11:25:51;;;;;;;16.55;10.43;;;13.50;40.50;;;;;;6227885;23;20040;-87
2022/03/05 11:28:51;;;;;;;14.63;9.40;;;13.00;39.80;;;;;;6204272;23;20455;-86
2022/03/05 11:31:38;;;;;;;15.60;9.90;;;12.50;40.60;;;;;;6215643;23;20058;-88
2022/03/05 11:34:30;;;;;;;17.95;10.07;;;11.20;41.80;;;;;;6194886;23;20031;-88
2022/03/05 11:37:26;;;;;;;14.93;9.90;;;10.20;43.80;;;;;;6217008;23;20286;-86
2022/03/05 11:40:41;;;;;;;14.50;9.23;;;9.40;44.60;;;;;;6194987;23;20120;-87
2022/03/05 11:43:28;;;;;;;14.93;9.32;;;10.00;45.80;;;;;;6216920;23;20028;-87
2022/03/05 11:46:27;;;;;;;15.13;9.90;;;11.40;43.50;;;;;;6214951;23;20087;-86
2022/03/05 11:49:21;;;;;;;16.05;8.98;;;12.50;39.50;;;;;;6214202;23;20024;-88
2022/03/05 11:52:08;;;;;;;13.98;8.77;;;12.50;39.20;;;;;;6218193;23;20028;-88
2022/03/05 11:55:28;;;;;;;13.88;8.88;;;12.60;38.60;;;;;;6194962;23;20048;-89
2022/03/05 11:58:17;;;;;;;12.70;8.95;;;11.80;39.10;;;;;;6156575;23;20264;-88
2022/03/05 12:01:38;;;;;;;13.13;8.82;;;12.40;39.30;;;;;;6216292;23;20036;-88
2022/03/05 12:04:30;;;;;;;17.45;9.55;;;12.60;38.00;;;;;;6198964;23;20396;-90
2022/03/05 12:07:24;;;;;;;12.43;8.25;;;11.80;39.80;;;;;;6203729;23;20035;-89
2022/03/05 12:10:15;;;;;;;12.75;8.00;;;13.00;39.50;;;;;;6225446;23;20039;-88
2022/03/05 12:13:15;;;;;;;11.15;8.18;;;13.70;36.80;;;;;;6224881;23;20075;-88
2022/03/05 12:16:29;;;;;;;14.27;8.80;;;13.70;35.70;;;;;;6222200;23;20024;-89
2022/03/05 12:19:25;;;;;;;13.18;7.68;;;14.20;34.70;;;;;;6197655;23;20024;-88
2022/03/05 12:22:14;;;;;;;10.88;7.88;;;14.90;35.10;;;;;;6211709;23;20424;-89
2022/03/05 12:25:02;;;;;;;11.70;8.07;;;15.60;32.80;;;;;;6213626;23;20029;-84
2022/03/05 12:27:55;;;;;;;10.98;7.90;;;15.40;32.20;;;;;;6191647;23;20115;-87
2022/03/05 12:30:43;;;;;;;12.68;7.85;;;14.30;33.60;;;;;;6217730;23;20741;-87
2022/03/05 12:33:33;;;;;;;11.18;8.02;;;13.60;35.70;;;;;;6216007;23;20082;-89
2022/03/05 12:36:22;;;;;;;12.30;8.30;;;14.10;34.90;;;;;;6196624;23;20039;-89
2022/03/05 12:39:10;;;;;;;13.00;8.70;;;14.80;33.00;;;;;;6196836;23;20043;-89
2022/03/05 12:41:59;;;;;;;13.52;8.63;;;13.30;35.00;;;;;;6217950;23;20107;-89
2022/03/05 12:44:47;;;;;;;9.85;7.40;;;13.90;34.90;;;;;;6195529;23;20027;-89
2022/03/05 12:47:37;;;;;;;10.10;7.32;;;14.20;33.50;;;;;;6216126;23;20029;-89
2022/03/05 12:50:39;;;;;;;11.13;7.70;;;13.70;33.90;;;;;;6195101;23;20024;-89
2022/03/05 12:53:26;;;;;;;12.02;8.27;;;13.40;35.20;;;;;;6217719;23;20083;-89
2022/03/05 12:56:20;;;;;;;12.13;7.50;;;14.40;33.00;;;;;;6217703;23;20028;-89
2022/03/05 12:59:07;;;;;;;11.68;7.90;;;14.60;33.10;;;;;;6195481;23;20424;-88
2022/03/05 13:02:04;;;;;;;13.77;8.50;;;15.00;32.90;;;;;;6197812;23;20108;-89
2022/03/05 13:04:52;;;;;;;13.20;9.43;;;14.50;32.20;;;;;;6196294;23;20025;-86
2022/03/05 13:07:43;;;;;;;13.25;9.60;;;13.40;34.20;;;;;;6195932;23;20127;-89
2022/03/05 13:10:31;;;;;;;14.45;9.15;;;12.80;35.60;;;;;;6194799;23;20085;-89
2022/03/05 13:13:33;;;;;;;12.52;8.88;;;13.00;35.40;;;;;;6215622;23;20416;-88
2022/03/05 13:16:36;;;;;;;12.57;8.93;;;13.10;35.30;;;;;;6229188;23;20029;-86
2022/03/05 13:19:23;;;;;;;12.27;8.80;;;13.40;34.60;;;;;;6230523;23;20020;-89
2022/03/05 13:22:24;;;;;;;10.85;8.15;;;14.50;34.40;;;;;;6197665;23;20288;-86
2022/03/05 13:25:15;;;;;;;13.75;9.13;;;14.70;33.40;;;;;;6216501;23;20420;-86
2022/03/05 13:28:06;;;;;;;12.25;8.40;;;14.40;33.10;;;;;;6216005;23;20106;-86
2022/03/05 13:31:00;;;;;;;10.63;8.25;;;14.20;32.70;;;;;;6216502;23;20028;-87
2022/03/05 13:33:50;;;;;;;13.43;7.78;;;13.60;33.90;;;;;;6216398;23;20036;-85
2022/03/05 13:36:42;;;;;;;13.77;8.35;;;14.20;33.60;;;;;;6217289;23;20146;-90
2022/03/05 13:39:33;;;;;;;;;;;15.10;32.20;;;;;;6217060;23;20120;-87
2022/03/05 13:42:20;;;;;;;13.32;8.50;;;14.40;32.50;;;;;;6215181;23;19927;-88
2022/03/05 13:45:10;;;;;;;14.23;9.15;;;14.20;32.80;;;;;;6215212;23;20043;-86
2022/03/05 13:47:57;;;;;;;15.23;9.15;;;13.40;33.70;;;;;;6208059;23;20035;-87
2022/03/05 13:50:45;;;;;;;13.52;8.63;;;12.80;35.50;;;;;;6222871;23;20404;-87
2022/03/05 13:53:45;;;;;;;11.18;8.32;;;13.30;34.90;;;;;;6217252;23;20035;-88
2022/03/05 13:56:44;;;;;;;12.35;9.25;;;14.00;33.20;;;;;;6217184;23;20358;-86
2022/03/05 13:59:51;;;;;;;12.20;8.73;;;14.40;32.80;;;;;;6195609;23;20031;-87
2022/03/05 14:02:43;;;;;;;15.88;9.23;;;14.80;33.10;;;;;;6217478;23;20020;-87
2022/03/05 14:05:32;;;;;;;15.70;9.38;;;14.40;32.30;;;;;;6214624;23;20025;-87
2022/03/05 14:08:20;;;;;;;12.95;9.13;;;14.80;31.90;;;;;;6194635;23;20027;-87
2022/03/05 14:11:07;;;;;;;13.75;9.68;;;15.00;32.50;;;;;;6194969;23;20036;-86
2022/03/05 14:13:57;;;;;;;15.75;9.45;;;13.40;34.30;;;;;;6194728;23;20028;-86
2022/03/05 14:16:44;;;;;;;14.30;9.85;;;13.30;34.90;;;;;;6215932;23;20036;-87
2022/03/05 14:19:34;;;;;;;14.73;9.88;;;14.00;33.50;;;;;;6194366;23;20074;-86
2022/03/05 14:22:22;;;;;;;13.40;9.45;;;13.80;33.30;;;;;;6215607;23;20083;-87
2022/03/05 14:25:15;;;;;;;13.30;9.20;;;13.30;34.80;;;;;;6192695;23;20021;-84
2022/03/05 14:28:04;;;;;;;17.20;9.45;;;12.60;35.50;;;;;;6216061;23;20369;-85